Time;durP1;ratioP1;P1;durP2;ratioP2;P2;SDS_P1;SDS_P2;PMS_P1;PMS_P2;Temp;Humidity;BMP_temperature;BMP_pressure;BME280_temperature;BME280_humidity;BME280_pressure;Samples;Min_cycle;Max_cycle;Signal;HPM_P1;HPM_P2
2024/04/17 00:02:03;;;;;;;7.78;1.70;;;;;;;;;;5032154;27;93988;-81
2024/04/17 00:05:07;;;;;;;5.13;1.20;;;;;;;;;;5040391;27;93178;-80
2024/04/17 00:07:48;;;;;;;6.60;1.40;;;;;;;;;;5043718;27;90563;-79
2024/04/17 00:11:11;;;;;;;4.18;1.38;;;;;;;;;;5025636;28;92755;-79
2024/04/17 00:14:02;;;;;;;7.90;1.42;;;;;;;;;;5006739;27;90927;-79
2024/04/17 00:16:34;;;;;;;4.93;1.23;;;;;;;;;;5016896;27;93003;-80
2024/04/17 00:19:28;;;;;;;6.47;1.50;;;;;;;;;;5043764;27;92650;-79
2024/04/17 00:22:09;;;;;;;9.05;1.40;;;;;;;;;;4978396;28;91026;-81
2024/04/17 00:24:52;;;;;;;6.45;1.33;;;;;;;;;;4975327;28;91352;-78
2024/04/17 00:27:41;;;;;;;4.93;1.25;;;;;;;;;;4978407;28;91620;-77
2024/04/17 00:30:38;;;;;;;11.25;1.50;;;;;;;;;;5013623;28;94170;-79
2024/04/17 00:33:16;;;;;;;9.88;1.40;;;;;;;;;;4984271;28;93681;-79
2024/04/17 00:35:59;;;;;;;8.45;1.40;;;;;;;;;;5021959;27;90896;-78
2024/04/17 00:39:02;;;;;;;6.40;1.40;;;;;;;;;;5005880;28;91574;-78
2024/04/17 00:41:34;;;;;;;7.70;1.50;;;;;;;;;;5036493;27;91361;-77
2024/04/17 00:44:04;;;;;;;7.47;1.50;;;;;;;;;;5048036;27;90872;-78
2024/04/17 00:46:38;;;;;;;6.20;1.30;;;;;;;;;;5000761;28;90942;-78
2024/04/17 00:49:12;;;;;;;4.78;1.27;;;;;;;;;;5037616;27;93224;-78
2024/04/17 00:52:12;;;;;;;6.45;1.33;;;;;;;;;;5026349;27;90943;-79
2024/04/17 00:54:47;;;;;;;6.85;1.50;;;;;;;;;;5048708;27;92363;-79
2024/04/17 00:58:00;;;;;;;7.60;1.38;;;;;;;;;;4969632;27;91585;-78
2024/04/17 01:00:42;;;;;;;6.47;1.40;;;;;;;;;;4990442;28;93816;-78
2024/04/17 01:03:22;;;;;;;8.02;1.50;;;;;;;;;;5010279;28;91087;-79
2024/04/17 01:05:53;;;;;;;9.00;1.50;;;;;;;;;;4986388;27;91006;-80
2024/04/17 01:08:27;;;;;;;4.63;1.17;;;;;;;;;;5042581;27;92124;-80
2024/04/17 01:10:58;;;;;;;5.55;1.23;;;;;;;;;;5047718;27;91500;-80
2024/04/17 01:19:55;;;;;;;6.13;1.25;;;;;;;;;;5011818;28;91437;-79
2024/04/17 01:22:57;;;;;;;5.53;1.27;;;;;;;;;;5017090;28;90780;-80
2024/04/17 01:25:31;;;;;;;9.85;1.50;;;;;;;;;;5037973;27;90449;-78
2024/04/17 01:28:02;;;;;;;6.50;1.38;;;;;;;;;;5022942;27;93026;-79
2024/04/17 01:34:39;;;;;;;3.90;1.20;;;;;;;;;;4983824;28;95370;-80
2024/04/17 01:37:30;;;;;;;4.85;1.30;;;;;;;;;;5047234;27;90916;-80
2024/04/17 01:40:01;;;;;;;4.38;1.20;;;;;;;;;;5034936;27;91490;-79
2024/04/17 01:43:06;;;;;;;3.78;1.02;;;;;;;;;;4984203;28;93879;-79
2024/04/17 01:45:48;;;;;;;7.13;1.27;;;;;;;;;;4998941;28;90963;-80
2024/04/17 01:48:19;;;;;;;5.57;1.35;;;;;;;;;;5028206;27;90615;-79
2024/04/17 01:50:53;;;;;;;6.60;1.70;;;;;;;;;;5020103;28;90625;-82
2024/04/17 01:53:57;;;;;;;;;;;;;;;;;;5028926;27;92543;-80
2024/04/17 01:56:36;;;;;;;6.50;1.35;;;;;;;;;;5054170;27;93502;-81
2024/04/17 01:59:08;;;;;;;7.03;1.38;;;;;;;;;;5044939;27;90931;-83
2024/04/17 02:01:40;;;;;;;9.43;1.60;;;;;;;;;;5033980;27;92753;-81
2024/04/17 02:04:11;;;;;;;4.75;1.38;;;;;;;;;;5064796;27;95720;-81
2024/04/17 02:06:43;;;;;;;7.03;1.52;;;;;;;;;;5042173;27;90786;-80
2024/04/17 02:09:16;;;;;;;6.13;1.50;;;;;;;;;;5045531;27;91112;-80
2024/04/17 02:11:49;;;;;;;6.88;1.55;;;;;;;;;;5006458;27;91963;-80
2024/04/17 02:14:20;;;;;;;6.28;1.48;;;;;;;;;;5014724;28;93799;-84
2024/04/17 02:16:53;;;;;;;7.43;1.60;;;;;;;;;;4988270;28;92117;-80
2024/04/17 02:19:26;;;;;;;4.75;1.40;;;;;;;;;;4989822;28;91189;-81
2024/04/17 02:22:08;;;;;;;6.07;1.30;;;;;;;;;;4981513;28;93870;-80
2024/04/17 02:30:34;;;;;;;4.82;1.35;;;;;;;;;;5049918;27;91360;-79
2024/04/17 02:33:06;;;;;;;4.78;1.33;;;;;;;;;;5042040;27;90939;-79
2024/04/17 02:35:47;;;;;;;6.00;1.33;;;;;;;;;;5071578;27;92036;-80
2024/04/17 02:38:52;;;;;;;6.53;1.40;;;;;;;;;;5056533;27;95992;-79
2024/04/17 02:41:34;;;;;;;5.72;1.50;;;;;;;;;;5045445;27;91792;-79
2024/04/17 02:44:15;;;;;;;4.38;1.20;;;;;;;;;;5015155;28;94850;-78
2024/04/17 02:46:57;;;;;;;4.97;1.30;;;;;;;;;;5017857;28;91338;-78
2024/04/17 02:49:59;;;;;;;4.65;1.20;;;;;;;;;;5098323;27;93314;-78
2024/04/17 02:53:03;;;;;;;6.63;1.60;;;;;;;;;;5045457;27;97307;-77
2024/04/17 02:55:34;;;;;;;8.07;1.50;;;;;;;;;;5022855;27;91461;-80
2024/04/17 02:58:28;;;;;;;7.72;1.55;;;;;;;;;;5051532;27;91276;-78
2024/04/17 03:01:21;;;;;;;6.32;1.38;;;;;;;;;;4959162;28;92718;-78
2024/04/17 03:04:01;;;;;;;6.65;1.50;;;;;;;;;;5031123;27;91090;-79
2024/04/17 03:06:34;;;;;;;5.47;1.40;;;;;;;;;;5041993;27;91096;-77
2024/04/17 03:09:08;;;;;;;5.43;1.50;;;;;;;;;;5071233;27;92187;-78
2024/04/17 03:11:48;;;;;;;6.97;1.40;;;;;;;;;;5049096;27;91022;-78
2024/04/17 03:14:21;;;;;;;8.60;1.20;;;;;;;;;;5075147;27;93742;-78
2024/04/17 03:17:04;;;;;;;5.85;1.38;;;;;;;;;;5073587;27;93618;-80
2024/04/17 03:19:46;;;;;;;6.22;1.40;;;;;;;;;;5035579;27;92219;-83
2024/04/17 03:22:16;;;;;;;8.35;1.80;;;;;;;;;;5021235;28;92654;-77
2024/04/17 03:24:51;;;;;;;9.68;1.58;;;;;;;;;;4991731;28;91606;-79
2024/04/17 03:27:24;;;;;;;6.90;1.40;;;;;;;;;;5018794;28;91303;-79
2024/04/17 03:30:04;;;;;;;5.88;1.40;;;;;;;;;;4991497;28;94734;-80
2024/04/17 03:32:35;;;;;;;5.82;1.30;;;;;;;;;;5049305;27;91015;-79
2024/04/17 03:35:09;;;;;;;10.45;1.60;;;;;;;;;;5081617;27;91089;-79
2024/04/17 03:37:39;;;;;;;4.03;1.10;;;;;;;;;;5054210;27;93937;-78
2024/04/17 03:40:14;;;;;;;4.20;1.20;;;;;;;;;;5016081;27;93513;-78
2024/04/17 03:42:54;;;;;;;7.95;1.58;;;;;;;;;;5043276;27;93758;-78
2024/04/17 03:45:27;;;;;;;9.95;1.90;;;;;;;;;;5088269;27;94514;-78
2024/04/17 03:48:11;;;;;;;7.10;1.40;;;;;;;;;;5074266;27;95361;-77
2024/04/17 03:50:51;;;;;;;6.25;1.27;;;;;;;;;;5050997;27;91531;-78
2024/04/17 03:53:25;;;;;;;7.05;1.23;;;;;;;;;;5129204;27;90966;-77
2024/04/17 03:56:06;;;;;;;6.10;1.15;;;;;;;;;;5078478;27;93840;-78
2024/04/17 03:58:39;;;;;;;3.95;1.10;;;;;;;;;;5077472;27;92175;-78
2024/04/17 04:01:21;;;;;;;5.72;1.13;;;;;;;;;;5078775;27;89862;-78
2024/04/17 04:03:51;;;;;;;5.88;1.13;;;;;;;;;;5044658;27;93549;-78
2024/04/17 04:06:24;;;;;;;3.30;1.10;;;;;;;;;;4947231;28;94160;-79
2024/04/17 04:08:55;;;;;;;3.58;1.13;;;;;;;;;;4958858;28;93176;-78
2024/04/17 04:11:28;;;;;;;3.35;1.10;;;;;;;;;;4982275;28;91572;-79
2024/04/17 04:13:59;;;;;;;3.13;0.93;;;;;;;;;;4973091;28;92118;-79
2024/04/17 04:16:34;;;;;;;5.13;1.05;;;;;;;;;;5024342;27;90991;-78
2024/04/17 04:19:16;;;;;;;4.38;1.13;;;;;;;;;;5074021;27;93949;-77
2024/04/17 04:21:56;;;;;;;5.30;1.20;;;;;;;;;;5079500;27;90939;-76
2024/04/17 04:24:29;;;;;;;2.55;1.10;;;;;;;;;;5078342;27;91844;-76
2024/04/17 04:26:59;;;;;;;4.38;1.25;;;;;;;;;;5079088;27;90575;-77
2024/04/17 04:29:32;;;;;;;3.55;1.05;;;;;;;;;;5081939;27;90985;-77
2024/04/17 04:32:05;;;;;;;4.57;1.02;;;;;;;;;;5092200;27;92164;-75
2024/04/17 04:34:36;;;;;;;4.07;1.00;;;;;;;;;;5077088;27;93124;-77
2024/04/17 04:37:09;;;;;;;2.42;1.02;;;;;;;;;;5078910;27;94973;-78
2024/04/17 04:40:05;;;;;;;3.22;0.93;;;;;;;;;;5076128;27;90839;-78
2024/04/17 04:42:46;;;;;;;4.88;1.13;;;;;;;;;;5045457;28;91165;-81
2024/04/17 04:45:47;;;;;;;4.15;1.10;;;;;;;;;;5072183;27;91844;-79
2024/04/17 04:48:18;;;;;;;3.88;1.10;;;;;;;;;;5089382;27;91098;-78
2024/04/17 04:51:01;;;;;;;5.38;0.95;;;;;;;;;;5100077;27;91345;-78
2024/04/17 04:53:34;;;;;;;6.50;1.20;;;;;;;;;;5081030;27;94280;-79
2024/04/17 04:56:07;;;;;;;;;;;;;;;;;;5077363;27;92975;-79
2024/04/17 04:58:45;;;;;;;4.18;1.10;;;;;;;;;;5093753;27;90901;-78
2024/04/17 05:01:19;;;;;;;3.88;1.00;;;;;;;;;;5049744;27;93697;-80
2024/04/17 05:03:50;;;;;;;5.30;0.95;;;;;;;;;;5046548;27;91706;-78
2024/04/17 05:06:46;;;;;;;4.43;0.98;;;;;;;;;;5048283;27;93403;-78
2024/04/17 05:09:48;;;;;;;3.90;0.98;;;;;;;;;;5034934;27;91504;-77
2024/04/17 05:12:31;;;;;;;2.67;0.80;;;;;;;;;;5044560;27;92591;-78
2024/04/17 05:15:14;;;;;;;4.13;1.02;;;;;;;;;;5047536;27;96280;-78
2024/04/17 05:17:53;;;;;;;6.22;0.98;;;;;;;;;;5070236;27;92791;-76
2024/04/17 05:23:38;;;;;;;4.20;1.10;;;;;;;;;;5067502;27;92826;-79
2024/04/17 05:26:23;;;;;;;8.02;1.05;;;;;;;;;;5072283;27;91376;-78
2024/04/17 05:29:03;;;;;;;6.00;0.90;;;;;;;;;;5120723;27;92964;-80
2024/04/17 05:31:34;;;;;;;2.88;0.85;;;;;;;;;;5037012;27;91395;-78
2024/04/17 05:34:16;;;;;;;6.13;1.00;;;;;;;;;;4951638;28;91184;-79
2024/04/17 05:36:47;;;;;;;5.85;1.10;;;;;;;;;;5013178;27;93821;-79
2024/04/17 05:39:22;;;;;;;3.60;0.93;;;;;;;;;;5081980;27;94386;-80
2024/04/17 05:42:22;;;;;;;4.85;1.00;;;;;;;;;;5060219;27;90632;-80
2024/04/17 05:44:54;;;;;;;3.53;0.93;;;;;;;;;;5066232;27;92869;-79
2024/04/17 05:47:28;;;;;;;3.28;0.85;;;;;;;;;;5069906;27;90328;-79
2024/04/17 05:50:32;;;;;;;;;;;;;;;;;;5015953;28;94750;-81
2024/04/17 05:53:21;;;;;;;4.75;0.82;;;;;;;;;;5017627;28;103836;-79
2024/04/17 05:55:54;;;;;;;4.65;1.10;;;;;;;;;;4993064;27;93542;-78
2024/04/17 05:58:29;;;;;;;3.42;0.98;;;;;;;;;;5026419;27;93952;-80
2024/04/17 06:01:10;;;;;;;5.63;0.93;;;;;;;;;;5050582;27;91779;-81
2024/04/17 06:04:04;;;;;;;4.50;1.02;;;;;;;;;;5047291;27;90858;-80
2024/04/17 06:06:45;;;;;;;5.60;1.00;;;;;;;;;;5076859;27;91902;-80
2024/04/17 06:09:46;;;;;;;6.10;1.05;;;;;;;;;;5060029;27;90802;-79
2024/04/17 06:12:29;;;;;;;3.60;0.95;;;;;;;;;;5049852;27;95970;-78
2024/04/17 06:15:23;;;;;;;3.90;1.00;;;;;;;;;;5079182;27;90693;-78
2024/04/17 06:18:05;;;;;;;4.70;1.10;;;;;;;;;;5071743;27;91271;-78
2024/04/17 06:20:45;;;;;;;3.78;0.93;;;;;;;;;;5065616;27;93484;-78
2024/04/17 06:23:47;;;;;;;5.97;0.98;;;;;;;;;;5053085;27;93693;-78
2024/04/17 06:26:19;;;;;;;5.05;1.00;;;;;;;;;;5080577;27;90920;-77
2024/04/17 06:28:53;;;;;;;4.75;1.20;;;;;;;;;;5106256;27;93473;-80
2024/04/17 06:31:43;;;;;;;4.53;0.93;;;;;;;;;;5092091;27;90961;-78
2024/04/17 06:34:17;;;;;;;6.70;1.17;;;;;;;;;;5055681;27;97906;-78
2024/04/17 06:36:59;;;;;;;4.78;0.90;;;;;;;;;;5103636;27;94795;-76
2024/04/17 06:39:33;;;;;;;5.07;1.00;;;;;;;;;;5085909;27;92837;-78
2024/04/17 06:42:11;;;;;;;4.78;1.00;;;;;;;;;;5050520;27;98741;-78
2024/04/17 06:44:45;;;;;;;4.78;1.10;;;;;;;;;;5016343;27;93648;-78
2024/04/17 06:47:20;;;;;;;3.33;1.00;;;;;;;;;;5080429;27;90852;-77
2024/04/17 06:50:08;;;;;;;3.83;1.00;;;;;;;;;;5040691;27;97861;-78
2024/04/17 06:52:43;;;;;;;5.18;1.00;;;;;;;;;;5024384;27;94339;-81
2024/04/17 06:55:33;;;;;;;5.38;1.20;;;;;;;;;;5064834;27;91099;-79
2024/04/17 06:58:09;;;;;;;4.03;1.13;;;;;;;;;;5064734;27;94480;-78
2024/04/17 07:00:41;;;;;;;11.90;1.40;;;;;;;;;;5072562;27;90853;-78
2024/04/17 07:03:13;;;;;;;9.23;1.60;;;;;;;;;;5049046;27;93608;-76
2024/04/17 07:05:43;;;;;;;7.07;1.38;;;;;;;;;;5064233;27;93414;-80
2024/04/17 07:08:14;;;;;;;6.88;1.27;;;;;;;;;;5074797;27;90435;-76
2024/04/17 07:10:45;;;;;;;5.57;1.17;;;;;;;;;;5074113;27;90932;-77
2024/04/17 07:13:18;;;;;;;4.80;1.20;;;;;;;;;;5076363;27;91791;-78
2024/04/17 07:16:12;;;;;;;7.50;1.20;;;;;;;;;;5097385;27;95157;-78
2024/04/17 07:18:42;;;;;;;7.35;1.42;;;;;;;;;;5092897;27;94107;-80
2024/04/17 07:21:13;;;;;;;8.10;1.20;;;;;;;;;;5019676;27;91234;-78
2024/04/17 07:23:43;;;;;;;7.50;1.40;;;;;;;;;;5067154;27;93421;-78
2024/04/17 07:26:12;;;;;;;7.00;1.33;;;;;;;;;;5074437;27;92363;-81
2024/04/17 07:28:48;;;;;;;8.13;1.30;;;;;;;;;;5057787;27;90846;-78
2024/04/17 07:31:15;;;;;;;6.63;1.17;;;;;;;;;;5057589;27;91274;-79
2024/04/17 07:33:47;;;;;;;4.85;1.17;;;;;;;;;;5043276;27;93837;-81
2024/04/17 07:36:15;;;;;;;3.40;1.05;;;;;;;;;;5097426;27;91237;-79
2024/04/17 07:38:45;;;;;;;4.05;1.00;;;;;;;;;;5048025;27;93746;-79
2024/04/17 07:41:12;;;;;;;5.50;1.10;;;;;;;;;;5046104;27;94145;-79
2024/04/17 07:43:46;;;;;;;5.05;0.90;;;;;;;;;;5042762;27;95875;-81
2024/04/17 07:46:14;;;;;;;4.60;0.90;;;;;;;;;;5065578;27;91022;-80
2024/04/17 07:48:41;;;;;;;6.55;1.17;;;;;;;;;;5061857;27;90938;-82
2024/04/17 07:51:12;;;;;;;4.68;1.05;;;;;;;;;;5076057;27;90825;-78
2024/04/17 07:53:40;;;;;;;6.22;0.95;;;;;;;;;;5047317;27;93918;-81
2024/04/17 07:56:12;;;;;;;4.18;1.00;;;;;;;;;;5072847;27;93219;-78
2024/04/17 07:58:42;;;;;;;;;;;;;;;;;;5066455;27;91040;-79
2024/04/17 08:01:18;;;;;;;5.32;0.82;;;;;;;;;;5045112;27;94285;-82
2024/04/17 08:04:02;;;;;;;3.50;0.80;;;;;;;;;;5059152;27;94335;-80
2024/04/17 08:06:32;;;;;;;4.05;0.95;;;;;;;;;;5099359;27;96597;-78
2024/04/17 08:08:59;;;;;;;4.70;1.00;;;;;;;;;;5053387;27;91185;-82
2024/04/17 08:11:35;;;;;;;5.18;1.05;;;;;;;;;;5066444;27;91405;-80
2024/04/17 08:14:08;;;;;;;3.15;0.90;;;;;;;;;;5070896;27;97348;-80
2024/04/17 08:16:50;;;;;;;;;;;;;;;;;;;;;
2024/04/17 08:19:28;;;;;;;3.05;0.75;;;;;;;;;;5041960;27;94312;-79
2024/04/17 08:22:20;;;;;;;4.32;0.93;;;;;;;;;;5028578;27;100328;-80
2024/04/17 08:25:05;;;;;;;2.78;0.80;;;;;;;;;;5078283;27;89665;-83
2024/04/17 08:27:37;;;;;;;4.40;0.80;;;;;;;;;;5038919;28;91032;-78
2024/04/17 08:30:05;;;;;;;16.35;1.35;;;;;;;;;;5060466;27;92055;-80
2024/04/17 08:32:34;;;;;;;8.38;1.10;;;;;;;;;;5036553;27;94595;-82
2024/04/17 08:35:12;;;;;;;6.30;0.85;;;;;;;;;;5051808;27;91386;-78
2024/04/17 08:37:43;;;;;;;9.32;1.10;;;;;;;;;;5009346;28;92607;-79
2024/04/17 08:40:14;;;;;;;7.35;1.02;;;;;;;;;;5020829;28;91953;-80
2024/04/17 08:43:10;;;;;;;5.22;0.90;;;;;;;;;;5005733;28;94233;-81
2024/04/17 08:45:40;;;;;;;3.55;0.90;;;;;;;;;;5042571;27;90979;-78
2024/04/17 08:48:17;;;;;;;3.03;0.80;;;;;;;;;;5033639;27;94516;-78
2024/04/17 08:50:46;;;;;;;3.85;1.00;;;;;;;;;;5067378;27;90771;-80
2024/04/17 08:53:17;;;;;;;2.85;0.70;;;;;;;;;;5042183;27;90606;-81
2024/04/17 08:55:45;;;;;;;3.70;1.00;;;;;;;;;;5038712;27;94273;-80
2024/04/17 08:58:32;;;;;;;2.63;0.80;;;;;;;;;;5040083;28;93700;-80
2024/04/17 09:01:09;;;;;;;5.18;0.93;;;;;;;;;;5043847;27;93602;-78
2024/04/17 09:03:39;;;;;;;2.67;1.25;;;;;;;;;;5033482;27;93179;-79
2024/04/17 09:06:09;;;;;;;2.67;0.75;;;;;;;;;;5036574;27;91185;-79
2024/04/17 09:08:38;;;;;;;3.65;0.80;;;;;;;;;;5014071;28;92970;-81
2024/04/17 09:11:08;;;;;;;2.90;0.70;;;;;;;;;;5009852;28;90795;-80
2024/04/17 09:13:35;;;;;;;1.98;0.70;;;;;;;;;;5003721;28;92888;-80
2024/04/17 09:16:03;;;;;;;5.03;1.00;;;;;;;;;;5012653;28;98190;-79
2024/04/17 09:18:31;;;;;;;2.75;0.80;;;;;;;;;;4993611;28;90648;-79
2024/04/17 09:21:01;;;;;;;2.03;0.70;;;;;;;;;;4979950;28;91235;-81
2024/04/17 09:23:29;;;;;;;3.35;0.70;;;;;;;;;;5006875;28;96394;-80
2024/04/17 09:25:56;;;;;;;5.60;0.90;;;;;;;;;;5037776;28;90689;-79
2024/04/17 09:28:23;;;;;;;2.00;0.70;;;;;;;;;;5039513;28;94226;-81
2024/04/17 09:30:50;;;;;;;2.95;0.88;;;;;;;;;;5025806;28;93542;-79
2024/04/17 09:33:19;;;;;;;2.60;0.60;;;;;;;;;;5035287;27;93909;-81
2024/04/17 09:36:05;;;;;;;2.53;0.60;;;;;;;;;;5026828;27;91413;-80
2024/04/17 09:38:37;;;;;;;2.30;0.77;;;;;;;;;;5019220;28;90571;-81
2024/04/17 09:41:05;;;;;;;4.63;0.85;;;;;;;;;;5029632;27;94032;-79
2024/04/17 09:43:34;;;;;;;12.85;1.50;;;;;;;;;;5023643;28;91576;-77
2024/04/17 09:46:07;;;;;;;6.60;0.80;;;;;;;;;;5044435;27;91164;-77
2024/04/17 09:48:37;;;;;;;6.22;0.90;;;;;;;;;;5043593;27;93618;-77
2024/04/17 09:51:05;;;;;;;5.10;0.90;;;;;;;;;;5069253;27;92631;-76
2024/04/17 09:53:34;;;;;;;8.20;1.00;;;;;;;;;;5099690;27;90563;-78
2024/04/17 09:56:05;;;;;;;4.90;1.10;;;;;;;;;;4999038;28;98581;-79
2024/04/17 09:58:32;;;;;;;6.80;1.10;;;;;;;;;;5037618;27;90603;-79
2024/04/17 10:01:02;;;;;;;4.03;0.80;;;;;;;;;;5046849;27;93782;-77
2024/04/17 10:03:31;;;;;;;4.38;0.90;;;;;;;;;;5014232;28;91371;-77
2024/04/17 10:06:02;;;;;;;3.35;1.00;;;;;;;;;;5013201;27;89855;-77
2024/04/17 10:08:30;;;;;;;3.70;0.63;;;;;;;;;;5012048;28;91278;-78
2024/04/17 10:10:57;;;;;;;3.83;0.85;;;;;;;;;;5009258;27;91167;-78
2024/04/17 10:13:28;;;;;;;6.25;1.02;;;;;;;;;;5010430;28;92999;-79
2024/04/17 10:15:55;;;;;;;4.40;0.85;;;;;;;;;;5015720;28;93326;-80
2024/04/17 10:18:22;;;;;;;4.15;0.80;;;;;;;;;;5021567;28;91085;-80
2024/04/17 10:20:53;;;;;;;3.75;0.85;;;;;;;;;;5025745;27;97484;-79
2024/04/17 10:23:20;;;;;;;3.17;0.80;;;;;;;;;;5010225;28;91180;-78
2024/04/17 10:25:56;;;;;;;3.00;0.70;;;;;;;;;;5010025;27;90565;-77
2024/04/17 10:28:24;;;;;;;4.57;0.80;;;;;;;;;;5017096;27;91063;-76
2024/04/17 10:30:53;;;;;;;2.60;0.65;;;;;;;;;;4981875;27;90138;-77
2024/04/17 10:33:20;;;;;;;3.15;0.80;;;;;;;;;;5006411;28;90785;-78
2024/04/17 10:35:48;;;;;;;3.53;0.85;;;;;;;;;;5018857;27;92113;-76
2024/04/17 10:38:15;;;;;;;2.05;0.80;;;;;;;;;;5003250;27;94516;-78
2024/04/17 10:40:57;;;;;;;3.08;0.70;;;;;;;;;;5081360;27;94935;-76
2024/04/17 10:43:25;;;;;;;1.67;0.55;;;;;;;;;;5074553;27;91366;-77
2024/04/17 10:45:59;;;;;;;3.10;0.70;;;;;;;;;;5047013;27;90592;-77
2024/04/17 10:48:26;;;;;;;2.67;0.63;;;;;;;;;;5091083;27;91250;-77
2024/04/17 10:50:53;;;;;;;3.03;0.80;;;;;;;;;;5094200;27;91853;-79
2024/04/17 10:53:21;;;;;;;1.92;0.70;;;;;;;;;;5042332;28;90708;-77
2024/04/17 10:55:50;;;;;;;2.50;0.70;;;;;;;;;;5055607;27;90945;-77
2024/04/17 10:58:17;;;;;;;2.70;0.73;;;;;;;;;;5052012;27;91510;-76
2024/04/17 11:00:47;;;;;;;4.05;0.90;;;;;;;;;;5069371;27;90852;-78
2024/04/17 11:03:27;;;;;;;5.57;1.05;;;;;;;;;;5040095;27;96735;-80
2024/04/17 11:05:55;;;;;;;6.97;1.00;;;;;;;;;;5084290;27;92803;-79
2024/04/17 11:08:23;;;;;;;4.35;1.20;;;;;;;;;;5079822;27;93027;-79
2024/04/17 11:10:52;;;;;;;5.70;0.93;;;;;;;;;;5093965;27;91131;-80
2024/04/17 11:13:24;;;;;;;4.10;1.05;;;;;;;;;;5043918;27;90864;-78
2024/04/17 11:15:51;;;;;;;4.20;1.10;;;;;;;;;;5072528;27;93390;-79
2024/04/17 11:18:20;;;;;;;2.88;0.80;;;;;;;;;;5076901;27;91286;-79
2024/04/17 11:20:46;;;;;;;;;;;;;;;;;;5071138;27;92686;-80
2024/04/17 11:23:15;;;;;;;3.50;1.00;;;;;;;;;;5075398;27;90930;-79
2024/04/17 11:25:43;;;;;;;3.47;0.90;;;;;;;;;;5064632;27;93445;-79
2024/04/17 11:28:14;;;;;;;2.55;0.90;;;;;;;;;;5037881;27;93004;-79
2024/04/17 11:30:46;;;;;;;3.45;0.90;;;;;;;;;;5047079;27;94018;-78
2024/04/17 11:33:20;;;;;;;1.67;0.70;;;;;;;;;;5073862;27;90883;-80
2024/04/17 11:36:12;;;;;;;4.72;0.90;;;;;;;;;;5040353;27;94221;-77
2024/04/17 11:38:42;;;;;;;2.40;0.73;;;;;;;;;;5068550;27;91104;-79
2024/04/17 11:41:14;;;;;;;5.07;1.00;;;;;;;;;;5064654;27;91223;-78
2024/04/17 11:43:44;;;;;;;2.15;0.90;;;;;;;;;;5039956;27;93206;-78
2024/04/17 11:46:17;;;;;;;3.63;0.85;;;;;;;;;;5067559;27;90420;-77
2024/04/17 11:48:46;;;;;;;3.67;1.30;;;;;;;;;;5055933;27;93466;-78
2024/04/17 11:51:15;;;;;;;3.63;0.75;;;;;;;;;;5084416;27;91395;-78
2024/04/17 11:53:43;;;;;;;2.67;0.85;;;;;;;;;;5066756;27;95516;-78
2024/04/17 11:56:10;;;;;;;3.97;0.70;;;;;;;;;;5075659;27;93895;-79
2024/04/17 11:58:39;;;;;;;2.60;0.65;;;;;;;;;;5044804;27;94491;-77
2024/04/17 12:01:07;;;;;;;2.58;0.80;;;;;;;;;;5073554;27;90919;-79
2024/04/17 12:03:35;;;;;;;2.08;0.90;;;;;;;;;;5073384;27;91857;-78
2024/04/17 12:06:06;;;;;;;1.38;0.70;;;;;;;;;;4999638;27;99079;-79
2024/04/17 12:08:34;;;;;;;4.90;0.80;;;;;;;;;;5038662;27;94298;-79
2024/04/17 12:11:01;;;;;;;2.67;0.90;;;;;;;;;;5034007;27;91167;-81
2024/04/17 12:13:32;;;;;;;;;;;;;;;;;;5016582;28;91266;-78
2024/04/17 12:16:00;;;;;;;;;;;;;;;;;;5018665;27;93677;-81
2024/04/17 12:18:27;;;;;;;2.70;0.80;;;;;;;;;;5101905;27;97990;-79
2024/04/17 12:20:56;;;;;;;2.95;0.90;;;;;;;;;;5049791;27;90440;-79
2024/04/17 12:23:27;;;;;;;2.05;0.70;;;;;;;;;;5073918;27;91285;-79
2024/04/17 12:28:41;;;;;;;2.72;0.63;;;;;;;;;;5079394;27;90742;-80
2024/04/17 12:31:11;;;;;;;1.92;0.75;;;;;;;;;;5061811;27;93769;-79
2024/04/17 12:33:49;;;;;;;3.17;0.90;;;;;;;;;;5071005;27;91069;-80
2024/04/17 12:36:19;;;;;;;3.25;0.80;;;;;;;;;;5057737;27;91013;-79
2024/04/17 12:38:48;;;;;;;1.90;0.77;;;;;;;;;;5044724;27;93877;-79
2024/04/17 12:41:16;;;;;;;2.13;0.70;;;;;;;;;;5045582;27;91097;-79
2024/04/17 12:43:44;;;;;;;2.47;0.75;;;;;;;;;;5065734;27;93029;-79
2024/04/17 12:46:11;;;;;;;3.75;0.73;;;;;;;;;;5075251;27;91523;-78
2024/04/17 12:48:41;;;;;;;2.08;0.63;;;;;;;;;;5092948;27;90411;-76
2024/04/17 12:51:08;;;;;;;;;;;;;;;;;;5088309;27;91341;-80
2024/04/17 12:53:39;;;;;;;1.98;0.60;;;;;;;;;;5068723;27;99183;-80
2024/04/17 12:56:09;;;;;;;3.35;0.70;;;;;;;;;;5055262;27;95235;-78
2024/04/17 12:58:38;;;;;;;3.10;0.90;;;;;;;;;;5050147;27;93985;-79
2024/04/17 13:01:05;;;;;;;3.17;0.70;;;;;;;;;;5091357;27;89879;-78
2024/04/17 13:03:32;;;;;;;;;;;;;;;;;;5076215;27;93048;-79
2024/04/17 13:06:02;;;;;;;1.65;0.70;;;;;;;;;;5076652;27;91096;-78
2024/04/17 13:08:34;;;;;;;0.88;0.60;;;;;;;;;;5042750;27;94007;-79
2024/04/17 13:11:01;;;;;;;2.42;0.75;;;;;;;;;;5023476;27;93933;-78
2024/04/17 13:13:32;;;;;;;1.88;0.68;;;;;;;;;;5085806;27;90989;-77
2024/04/17 13:16:01;;;;;;;1.65;0.63;;;;;;;;;;5092850;27;91018;-79
2024/04/17 13:18:33;;;;;;;1.40;0.73;;;;;;;;;;5076219;27;91262;-78
2024/04/17 13:21:02;;;;;;;1.17;0.63;;;;;;;;;;5088736;27;90529;-79
2024/04/17 13:23:33;;;;;;;4.13;0.80;;;;;;;;;;5074218;27;90894;-76
2024/04/17 13:26:03;;;;;;;1.58;0.57;;;;;;;;;;5014218;27;92119;-78
2024/04/17 13:28:32;;;;;;;0.90;0.45;;;;;;;;;;5062830;27;90963;-80
2024/04/17 13:31:02;;;;;;;1.60;0.80;;;;;;;;;;5061054;27;91433;-80
2024/04/17 13:33:30;;;;;;;1.40;0.55;;;;;;;;;;5061354;27;94583;-78
2024/04/17 13:36:04;;;;;;;1.38;0.73;;;;;;;;;;5091430;27;93983;-79
2024/04/17 13:38:31;;;;;;;1.33;0.75;;;;;;;;;;5081195;27;91302;-80
2024/04/17 13:41:02;;;;;;;1.38;0.68;;;;;;;;;;5045141;27;91259;-78
2024/04/17 13:43:30;;;;;;;0.77;0.52;;;;;;;;;;5074616;27;92499;-79
2024/04/17 13:45:58;;;;;;;3.40;0.65;;;;;;;;;;5073862;27;91207;-78
2024/04/17 13:48:27;;;;;;;1.23;0.60;;;;;;;;;;5083332;27;90525;-79
2024/04/17 13:50:57;;;;;;;0.95;0.63;;;;;;;;;;5107186;27;92248;-79
2024/04/17 13:53:26;;;;;;;1.63;0.68;;;;;;;;;;5078220;27;94301;-79
2024/04/17 13:55:54;;;;;;;1.00;0.60;;;;;;;;;;5104232;27;91355;-79
2024/04/17 13:58:26;;;;;;;2.47;0.80;;;;;;;;;;5100562;27;93248;-79
2024/04/17 14:00:54;;;;;;;2.00;0.80;;;;;;;;;;5106876;27;91035;-80
2024/04/17 14:03:22;;;;;;;2.08;0.55;;;;;;;;;;5078134;27;94679;-80
2024/04/17 14:05:50;;;;;;;0.95;0.60;;;;;;;;;;5104586;27;91212;-79
2024/04/17 14:08:18;;;;;;;1.23;0.60;;;;;;;;;;5105334;27;90818;-79
2024/04/17 14:10:47;;;;;;;1.13;0.60;;;;;;;;;;5055556;27;93470;-76
2024/04/17 14:13:15;;;;;;;1.98;0.68;;;;;;;;;;5096392;27;94228;-78
2024/04/17 14:15:42;;;;;;;2.47;0.82;;;;;;;;;;5073691;27;90337;-78
2024/04/17 14:18:09;;;;;;;1.75;0.50;;;;;;;;;;5076753;27;90988;-77
2024/04/17 14:20:37;;;;;;;1.17;0.68;;;;;;;;;;5076082;27;91099;-76
2024/04/17 14:23:04;;;;;;;0.82;0.50;;;;;;;;;;5046818;27;93927;-76
2024/04/17 14:25:38;;;;;;;1.10;0.60;;;;;;;;;;5052523;27;94097;-78
2024/04/17 14:28:08;;;;;;;0.98;0.43;;;;;;;;;;5075017;27;92204;-76
2024/04/17 14:30:42;;;;;;;1.33;0.50;;;;;;;;;;5090589;27;92813;-78
2024/04/17 14:33:10;;;;;;;0.90;0.50;;;;;;;;;;5101136;27;91683;-78
2024/04/17 14:35:40;;;;;;;1.30;0.68;;;;;;;;;;5095660;27;91730;-76
2024/04/17 14:38:08;;;;;;;;;;;;;;;;;;5072741;27;94192;-77
2024/04/17 14:40:36;;;;;;;0.47;0.45;;;;;;;;;;5103009;27;92214;-76
2024/04/17 14:43:06;;;;;;;;;;;;;;;;;;5038375;27;92805;-78
2024/04/17 14:45:34;;;;;;;2.10;0.52;;;;;;;;;;5066053;27;94442;-76
2024/04/17 14:48:06;;;;;;;0.98;0.50;;;;;;;;;;5070588;27;93739;-76
2024/04/17 14:50:35;;;;;;;1.38;0.63;;;;;;;;;;5059955;27;94192;-78
2024/04/17 14:53:03;;;;;;;0.70;0.50;;;;;;;;;;5094513;27;92776;-78
2024/04/17 14:55:32;;;;;;;0.95;0.80;;;;;;;;;;5088743;27;91081;-78
2024/04/17 14:58:00;;;;;;;1.52;0.63;;;;;;;;;;5090612;27;91042;-79
2024/04/17 15:00:27;;;;;;;1.05;0.60;;;;;;;;;;5063217;27;93684;-78
2024/04/17 15:02:55;;;;;;;1.05;0.60;;;;;;;;;;5067987;27;92973;-78
2024/04/17 15:05:22;;;;;;;5.93;1.00;;;;;;;;;;5092987;27;90407;-80
2024/04/17 15:07:50;;;;;;;2.83;0.70;;;;;;;;;;5071364;27;90687;-79
2024/04/17 15:10:24;;;;;;;1.35;0.50;;;;;;;;;;5097376;27;93304;-80
2024/04/17 15:12:56;;;;;;;7.95;1.00;;;;;;;;;;5071328;27;96085;-79
2024/04/17 15:15:23;;;;;;;2.42;0.63;;;;;;;;;;5097904;27;91093;-77
2024/04/17 15:17:50;;;;;;;2.28;0.70;;;;;;;;;;5101475;27;90827;-79
2024/04/17 15:20:17;;;;;;;2.67;0.68;;;;;;;;;;5094245;27;92967;-76
2024/04/17 15:22:44;;;;;;;2.50;0.55;;;;;;;;;;5098199;27;91227;-77
2024/04/17 15:25:12;;;;;;;1.85;0.80;;;;;;;;;;5096668;27;93565;-79
2024/04/17 15:27:40;;;;;;;1.52;0.52;;;;;;;;;;5069870;27;90963;-78
2024/04/17 15:30:12;;;;;;;1.50;0.77;;;;;;;;;;5091329;27;93134;-77
2024/04/17 15:32:41;;;;;;;1.90;0.85;;;;;;;;;;5100554;27;91381;-77
2024/04/17 15:35:09;;;;;;;1.17;0.60;;;;;;;;;;5070125;27;92738;-78
2024/04/17 15:37:35;;;;;;;;;;;;;;;;;;5097952;27;93903;-77
2024/04/17 15:40:04;;;;;;;1.08;0.80;;;;;;;;;;5100089;27;99185;-78
2024/04/17 15:42:32;;;;;;;0.93;0.70;;;;;;;;;;5099499;27;91035;-77
2024/04/17 15:45:02;;;;;;;1.48;0.60;;;;;;;;;;5100363;27;95205;-78
2024/04/17 15:47:36;;;;;;;4.35;0.77;;;;;;;;;;5073517;27;90866;-78
2024/04/17 15:50:03;;;;;;;1.05;0.63;;;;;;;;;;5068783;27;96311;-79
2024/04/17 15:52:33;;;;;;;0.95;0.63;;;;;;;;;;5104645;27;90669;-77
2024/04/17 15:55:01;;;;;;;2.47;0.70;;;;;;;;;;5099234;27;90237;-78